createdAt,value
2018-02-19T00:00:28.715Z,18.23
2018-02-19T00:05:12.112Z,17.60
2018-02-19T00:09:55.475Z,17.27
2018-02-19T00:14:38.821Z,18.93
2018-02-19T00:19:22.505Z,17.33
2018-02-19T00:24:05.844Z,16.90
2018-02-19T00:28:49.215Z,16.93
2018-02-19T00:33:33.974Z,18.00
2018-02-19T00:38:17.619Z,16.90
2018-02-19T00:43:01.057Z,17.07
2018-02-19T00:47:44.573Z,17.00
2018-02-19T00:52:27.948Z,18.07
2018-02-19T00:57:11.448Z,17.07
2018-02-19T01:01:55.648Z,17.27
2018-02-19T01:06:39.099Z,16.47
2018-02-19T01:11:22.730Z,17.63
2018-02-19T01:16:06.181Z,15.70
2018-02-19T01:20:52.648Z,16.77
2018-02-19T01:25:36.038Z,16.23
2018-02-19T01:30:19.468Z,18.07
2018-02-19T01:35:02.909Z,15.50
2018-02-19T01:39:46.410Z,17.33
2018-02-19T01:44:30.860Z,16.93
2018-02-19T01:49:14.250Z,18.27
2018-02-19T01:53:57.612Z,17.13
2018-02-19T01:58:41.103Z,17.03
2018-02-19T02:03:24.485Z,17.83
2018-02-19T02:08:07.933Z,17.37
2018-02-19T02:12:51.234Z,18.23
2018-02-19T02:17:35.343Z,18.57
2018-02-19T02:22:18.767Z,17.83
2018-02-19T02:27:02.094Z,18.10
2018-02-19T02:31:45.410Z,16.67
2018-02-19T02:36:29.540Z,17.23
2018-02-19T02:41:13.218Z,17.63
2018-02-19T02:45:57.315Z,16.53
2018-02-19T02:50:40.719Z,17.40
2018-02-19T02:55:24.047Z,16.13
2018-02-19T03:00:08.153Z,17.73
2018-02-19T03:04:51.478Z,18.73
2018-02-19T03:09:35.538Z,15.50
2018-02-19T03:14:18.987Z,15.13
2018-02-19T03:19:03.077Z,16.37
2018-02-19T03:23:46.450Z,16.03
2018-02-19T03:28:29.832Z,17.10
2018-02-19T03:33:13.176Z,17.63
2018-02-19T03:37:56.515Z,18.20
2018-02-19T03:42:39.923Z,17.00
2018-02-19T03:47:24.049Z,17.77
2018-02-19T03:52:09.966Z,18.23
2018-02-19T03:56:53.587Z,18.00
2018-02-19T04:01:37.232Z,19.00
2018-02-19T04:06:22.066Z,18.57
2018-02-19T04:11:06.891Z,17.87
2018-02-19T04:15:50.769Z,17.07
2018-02-19T04:20:35.905Z,17.60
2018-02-19T04:25:20.638Z,16.67
2018-02-19T04:30:05.385Z,17.43
2018-02-19T04:34:50.108Z,16.23
2018-02-19T04:39:34.889Z,16.73
2018-02-19T04:44:33.158Z,17.07
2018-02-19T04:49:17.306Z,17.13
2018-02-19T04:54:01.446Z,18.73
2018-02-19T04:58:44.754Z,17.80
2018-02-19T05:03:28.099Z,18.13
2018-02-19T05:08:11.467Z,16.73
2018-02-19T05:12:55.319Z,17.93
2018-02-19T05:17:41.975Z,19.57
2018-02-19T05:22:25.343Z,16.43
2018-02-19T05:27:10.634Z,18.80
2018-02-19T05:31:54.036Z,17.27
2018-02-19T05:36:37.435Z,18.60
2018-02-19T05:41:20.787Z,19.67
2018-02-19T05:46:04.936Z,19.43
2018-02-19T05:50:49.308Z,18.43
2018-02-19T05:55:32.655Z,20.13
2018-02-19T06:00:18.416Z,18.67
2018-02-19T06:05:01.735Z,18.07
2018-02-19T06:14:56.328Z,16.67
2018-02-19T06:25:02.421Z,17.90
2018-02-19T06:29:46.620Z,18.40
2018-02-19T06:39:32.548Z,18.87
2018-02-19T06:44:15.935Z,17.17
2018-02-19T06:48:59.284Z,18.40
2018-02-19T06:53:42.636Z,18.90
2018-02-19T06:58:26.771Z,16.97
2018-02-19T07:03:10.479Z,17.07
2018-02-19T07:07:53.856Z,16.00
2018-02-19T07:12:37.280Z,17.37
2018-02-19T07:17:21.410Z,15.47
2018-02-19T07:22:04.784Z,16.43
2018-02-19T07:27:05.730Z,16.53
2018-02-19T07:31:50.045Z,15.57
2018-02-19T07:36:33.660Z,15.50
2018-02-19T07:41:18.460Z,11.57
2018-02-19T07:46:02.327Z,18.97
2018-02-19T08:00:53.431Z,15.67
2018-02-19T08:05:37.145Z,15.97
2018-02-19T08:10:21.399Z,15.10
2018-02-19T08:15:11.357Z,13.70
2018-02-19T08:19:54.877Z,14.40
2018-02-19T08:24:39.745Z,14.00
2018-02-19T08:29:23.121Z,14.27
2018-02-19T08:34:10.284Z,14.37
2018-02-19T08:39:00.966Z,15.37
2018-02-19T08:43:45.645Z,14.37
2018-02-19T08:53:30.058Z,14.47
2018-02-19T08:58:20.237Z,14.60
2018-02-19T09:07:58.136Z,14.50
2018-02-19T09:12:42.406Z,14.57
2018-02-19T09:17:26.559Z,13.80
2018-02-19T09:22:09.949Z,12.90
2018-02-19T09:26:53.341Z,12.67
2018-02-19T09:31:37.464Z,13.90
2018-02-19T09:47:31.693Z,15.20
2018-02-19T09:52:26.456Z,15.10
2018-02-19T09:57:17.428Z,14.80
2018-02-19T10:02:07.803Z,13.90
2018-02-19T10:06:51.980Z,13.90
2018-02-19T10:11:35.740Z,12.70
2018-02-19T10:16:24.920Z,14.43
2018-02-19T10:21:34.531Z,13.40
2018-02-19T10:26:24.021Z,13.67
2018-02-19T10:31:41.563Z,12.80
2018-02-19T10:36:26.312Z,12.67
2018-02-19T10:41:14.549Z,11.53
2018-02-19T10:45:58.914Z,12.20
2018-02-19T10:50:42.258Z,12.30
2018-02-19T10:55:26.917Z,13.10
2018-02-19T11:00:10.447Z,13.30
2018-02-19T11:05:00.584Z,12.40
2018-02-19T11:09:44.004Z,14.20
2018-02-19T11:14:27.399Z,12.70
2018-02-19T11:19:11.625Z,12.20
2018-02-19T11:23:55.113Z,13.50
2018-02-19T11:28:38.479Z,12.90
2018-02-19T11:33:22.648Z,12.57
2018-02-19T11:38:06.001Z,12.30
2018-02-19T11:42:49.390Z,10.87
2018-02-19T11:47:32.832Z,11.67
2018-02-19T11:52:16.977Z,11.20
2018-02-19T11:57:00.502Z,11.23
2018-02-19T12:01:48.839Z,10.07
2018-02-19T12:06:32.310Z,9.07
2018-02-19T12:11:16.078Z,10.87
2018-02-19T12:15:59.398Z,10.13
2018-02-19T12:20:42.848Z,9.47
2018-02-19T12:25:27.111Z,9.53
2018-02-19T12:30:11.279Z,9.80
2018-02-19T12:34:54.648Z,8.93
2018-02-19T12:39:37.994Z,8.53
2018-02-19T12:44:21.345Z,8.90
2018-02-19T12:49:04.651Z,7.37
2018-02-19T12:53:48.054Z,8.77
2018-02-19T12:58:31.523Z,8.77
2018-02-19T13:03:15.639Z,8.10
2018-02-19T13:07:59.278Z,9.50
2018-02-19T13:12:43.454Z,8.43
2018-02-19T13:17:26.783Z,8.87
2018-02-19T13:22:10.175Z,8.47
2018-02-19T13:26:53.567Z,8.60
2018-02-19T13:31:37.062Z,8.47
2018-02-19T13:36:21.286Z,9.20
2018-02-19T13:41:04.591Z,10.90
2018-02-19T13:45:48.001Z,10.07
2018-02-19T13:50:32.202Z,10.57
2018-02-19T13:55:15.594Z,11.47
2018-02-19T13:59:58.938Z,10.63
2018-02-19T14:04:43.040Z,10.27
2018-02-19T14:09:28.739Z,11.13
2018-02-19T14:14:12.191Z,10.50
2018-02-19T14:18:58.072Z,11.00
2018-02-19T14:23:41.543Z,11.20
2018-02-19T14:28:25.017Z,9.60
2018-02-19T14:33:09.499Z,11.00
2018-02-19T14:37:52.845Z,10.57
2018-02-19T14:42:36.247Z,10.23
2018-02-19T14:47:19.778Z,10.67
2018-02-19T14:52:03.213Z,11.03
2018-02-19T14:56:46.558Z,11.80
2018-02-19T15:01:29.899Z,10.33
2018-02-19T15:06:13.328Z,10.37
2018-02-19T15:10:59.479Z,10.97
2018-02-19T15:15:42.877Z,9.90
2018-02-19T15:20:26.190Z,11.07
2018-02-19T15:25:10.333Z,10.60
2018-02-19T15:29:54.054Z,11.40
2018-02-19T15:34:40.435Z,11.30
2018-02-19T15:44:58.565Z,12.73
2018-02-19T15:49:42.987Z,11.53
2018-02-19T15:54:26.461Z,12.37
2018-02-19T15:59:09.919Z,12.70
2018-02-19T16:03:53.341Z,12.57
2018-02-19T16:08:36.922Z,13.50
2018-02-19T16:13:21.197Z,12.17
2018-02-19T16:18:04.536Z,13.33
2018-02-19T16:22:48.877Z,13.90
2018-02-19T16:27:32.324Z,13.80
2018-02-19T16:32:16.653Z,13.43
2018-02-19T16:37:00.944Z,13.43
2018-02-19T16:41:45.785Z,12.50
2018-02-19T16:46:33.308Z,13.73
2018-02-19T16:51:19.183Z,13.03
2018-02-19T16:56:02.568Z,12.53
2018-02-19T17:00:46.112Z,12.73
2018-02-19T17:05:30.031Z,13.53
2018-02-19T17:10:13.843Z,13.87
2018-02-19T17:15:00.364Z,14.43
2018-02-19T17:19:44.104Z,19.60
2018-02-19T17:24:29.282Z,13.63
2018-02-19T17:29:13.083Z,14.70
2018-02-19T17:33:56.568Z,15.33
2018-02-19T17:38:40.112Z,15.17
2018-02-19T17:43:24.203Z,14.43
2018-02-19T17:48:10.096Z,14.90
2018-02-19T17:52:59.331Z,14.57
2018-02-19T17:57:44.116Z,13.87
2018-02-19T18:02:30.140Z,13.07
2018-02-19T18:07:13.916Z,14.40
2018-02-19T18:17:11.844Z,14.87
2018-02-19T18:21:55.244Z,15.67
2018-02-19T18:26:38.846Z,15.73
2018-02-19T18:31:22.487Z,15.17
2018-02-19T18:36:06.563Z,16.33
2018-02-19T18:40:50.998Z,19.50
2018-02-19T18:45:34.426Z,20.13
2018-02-19T18:50:18.601Z,19.83
2018-02-19T18:55:02.984Z,18.27
2018-02-19T18:59:46.621Z,20.20
2018-02-19T19:04:30.324Z,20.43
2018-02-19T19:09:25.557Z,19.57
2018-02-19T19:14:08.987Z,19.00
2018-02-19T19:18:52.614Z,19.00
2018-02-19T19:23:37.198Z,17.67
2018-02-19T19:28:20.803Z,20.20
2018-02-19T19:33:04.247Z,20.40
2018-02-19T19:37:47.783Z,18.93
2018-02-19T19:42:31.279Z,19.63
2018-02-19T19:47:15.659Z,20.50
2018-02-19T19:51:59.835Z,21.33
2018-02-19T19:56:43.517Z,21.27
2018-02-19T20:01:27.886Z,20.87
2018-02-19T20:06:11.334Z,21.70
2018-02-19T20:10:54.806Z,24.43
2018-02-19T20:15:39.007Z,23.63
2018-02-19T20:20:22.431Z,23.50
2018-02-19T20:25:06.205Z,22.50
2018-02-19T20:29:50.055Z,22.37
2018-02-19T20:34:33.426Z,24.07
2018-02-19T20:39:16.776Z,24.53
2018-02-19T20:44:01.110Z,24.80
2018-02-19T20:48:44.964Z,26.03
2018-02-19T20:53:28.389Z,26.10
2018-02-19T20:58:11.736Z,27.57
2018-02-19T21:02:55.043Z,28.70
2018-02-19T21:07:39.163Z,24.93
2018-02-19T21:12:22.558Z,24.87
2018-02-19T21:17:06.668Z,25.13
2018-02-19T21:21:50.019Z,23.10
2018-02-19T21:26:33.493Z,20.27
2018-02-19T21:31:17.721Z,22.00
2018-02-19T21:36:01.147Z,20.63
2018-02-19T21:40:44.551Z,20.50
2018-02-19T21:45:28.679Z,18.37
2018-02-19T21:50:12.014Z,20.70
2018-02-19T21:54:55.377Z,21.47
2018-02-19T21:59:39.513Z,21.77
2018-02-19T22:04:22.869Z,23.50
2018-02-19T22:09:06.234Z,22.27
2018-02-19T22:13:49.567Z,24.10
2018-02-19T22:18:32.976Z,21.47
2018-02-19T22:23:16.364Z,22.67
2018-02-19T22:27:59.802Z,23.10
2018-02-19T22:32:43.155Z,22.13
2018-02-19T22:37:26.508Z,22.43
2018-02-19T22:42:09.904Z,24.10
2018-02-19T22:46:54.018Z,22.50
2018-02-19T22:51:37.354Z,25.23
2018-02-19T22:56:20.712Z,24.93
2018-02-19T23:01:04.069Z,23.43
2018-02-19T23:05:47.438Z,23.77
2018-02-19T23:10:31.631Z,24.63
2018-02-19T23:15:14.982Z,24.63
2018-02-19T23:19:58.543Z,25.50
2018-02-19T23:24:42.578Z,27.97
2018-02-19T23:29:25.941Z,29.23
2018-02-19T23:34:10.111Z,26.43
2018-02-19T23:38:53.435Z,27.17
2018-02-19T23:43:36.756Z,25.13
2018-02-19T23:48:20.112Z,26.50
2018-02-19T23:53:03.463Z,27.93
2018-02-19T23:57:46.807Z,24.87
